sensor_id;sensor_type;location;lat;lon;timestamp;pressure;altitude;pressure_sealevel;temperature;humidity
47985;BME280;33753;52.912;-7.342;2023-05-24T00:00:42;101635.75;;;10.05;100.00
47985;BME280;33753;52.912;-7.342;2023-05-24T00:03:10;101632.47;;;10.01;100.00
47985;BME280;33753;52.912;-7.342;2023-05-24T00:05:41;101641.00;;;9.97;100.00
47985;BME280;33753;52.912;-7.342;2023-05-24T00:08:12;101654.34;;;9.89;100.00
47985;BME280;33753;52.912;-7.342;2023-05-24T00:10:41;101639.81;;;9.80;100.00
47985;BME280;33753;52.912;-7.342;2023-05-24T00:13:10;101645.91;;;9.72;100.00
47985;BME280;33753;52.912;-7.342;2023-05-24T00:15:40;101647.31;;;9.66;100.00
47985;BME280;33753;52.912;-7.342;2023-05-24T00:18:08;101651.13;;;9.64;100.00
47985;BME280;33753;52.912;-7.342;2023-05-24T00:20:36;101653.38;;;9.59;100.00
47985;BME280;33753;52.912;-7.342;2023-05-24T00:23:05;101655.66;;;9.54;100.00
47985;BME280;33753;52.912;-7.342;2023-05-24T00:25:33;101652.22;;;9.51;100.00
47985;BME280;33753;52.912;-7.342;2023-05-24T00:28:01;101643.69;;;9.46;100.00
47985;BME280;33753;52.912;-7.342;2023-05-24T00:30:30;101649.34;;;9.43;100.00
47985;BME280;33753;52.912;-7.342;2023-05-24T00:32:59;101644.22;;;9.40;100.00
47985;BME280;33753;52.912;-7.342;2023-05-24T00:35:29;101660.94;;;9.34;100.00
47985;BME280;33753;52.912;-7.342;2023-05-24T00:37:57;101654.84;;;9.32;100.00
47985;BME280;33753;52.912;-7.342;2023-05-24T00:40:25;101656.53;;;9.33;100.00
47985;BME280;33753;52.912;-7.342;2023-05-24T00:42:53;101657.81;;;9.29;100.00
47985;BME280;33753;52.912;-7.342;2023-05-24T00:45:22;101661.50;;;9.28;100.00
47985;BME280;33753;52.912;-7.342;2023-05-24T00:47:50;101660.75;;;9.26;100.00
47985;BME280;33753;52.912;-7.342;2023-05-24T00:50:19;101651.09;;;9.23;100.00
47985;BME280;33753;52.912;-7.342;2023-05-24T00:52:48;101658.31;;;9.23;100.00
47985;BME280;33753;52.912;-7.342;2023-05-24T00:55:17;101649.50;;;9.21;100.00
47985;BME280;33753;52.912;-7.342;2023-05-24T00:57:45;101640.09;;;9.15;100.00
47985;BME280;33753;52.912;-7.342;2023-05-24T01:00:14;101631.53;;;9.10;100.00
47985;BME280;33753;52.912;-7.342;2023-05-24T01:02:42;101634.63;;;9.05;100.00
47985;BME280;33753;52.912;-7.342;2023-05-24T01:05:14;101635.75;;;9.03;100.00
47985;BME280;33753;52.912;-7.342;2023-05-24T01:07:48;101635.88;;;9.01;100.00
47985;BME280;33753;52.912;-7.342;2023-05-24T01:10:24;101638.84;;;8.98;100.00
47985;BME280;33753;52.912;-7.342;2023-05-24T01:12:58;101655.06;;;8.98;100.00
47985;BME280;33753;52.912;-7.342;2023-05-24T01:15:30;101653.59;;;8.94;100.00
47985;BME280;33753;52.912;-7.342;2023-05-24T01:18:01;101660.25;;;8.90;100.00
47985;BME280;33753;52.912;-7.342;2023-05-24T01:20:32;101657.22;;;8.83;100.00
47985;BME280;33753;52.912;-7.342;2023-05-24T01:23:06;101665.69;;;8.78;100.00
47985;BME280;33753;52.912;-7.342;2023-05-24T01:28:25;101655.16;;;8.75;100.00
47985;BME280;33753;52.912;-7.342;2023-05-24T01:30:54;101655.97;;;8.66;100.00
47985;BME280;33753;52.912;-7.342;2023-05-24T01:33:23;101653.25;;;8.66;100.00
47985;BME280;33753;52.912;-7.342;2023-05-24T01:35:51;101653.03;;;8.58;100.00
47985;BME280;33753;52.912;-7.342;2023-05-24T01:38:20;101663.84;;;8.58;100.00
47985;BME280;33753;52.912;-7.342;2023-05-24T01:40:49;101665.34;;;8.51;100.00
47985;BME280;33753;52.912;-7.342;2023-05-24T01:43:22;101657.25;;;8.51;100.00
47985;BME280;33753;52.912;-7.342;2023-05-24T01:45:56;101654.06;;;8.45;100.00
47985;BME280;33753;52.912;-7.342;2023-05-24T01:48:30;101655.53;;;8.38;100.00
47985;BME280;33753;52.912;-7.342;2023-05-24T01:51:03;101653.34;;;8.32;100.00
47985;BME280;33753;52.912;-7.342;2023-05-24T01:53:32;101658.00;;;8.30;100.00
47985;BME280;33753;52.912;-7.342;2023-05-24T01:56:02;101655.56;;;8.27;100.00
47985;BME280;33753;52.912;-7.342;2023-05-24T01:58:32;101659.00;;;8.29;100.00
47985;BME280;33753;52.912;-7.342;2023-05-24T02:01:02;101662.16;;;8.34;100.00
47985;BME280;33753;52.912;-7.342;2023-05-24T02:03:32;101665.59;;;8.36;100.00
47985;BME280;33753;52.912;-7.342;2023-05-24T02:06:01;101676.13;;;8.39;100.00
47985;BME280;33753;52.912;-7.342;2023-05-24T02:08:30;101673.44;;;8.39;100.00
47985;BME280;33753;52.912;-7.342;2023-05-24T02:10:58;101678.06;;;8.37;100.00
47985;BME280;33753;52.912;-7.342;2023-05-24T02:13:27;101666.69;;;8.34;100.00
47985;BME280;33753;52.912;-7.342;2023-05-24T02:15:55;101670.50;;;8.31;100.00
47985;BME280;33753;52.912;-7.342;2023-05-24T02:18:26;101671.03;;;8.25;100.00
47985;BME280;33753;52.912;-7.342;2023-05-24T02:21:00;101675.91;;;8.20;100.00
47985;BME280;33753;52.912;-7.342;2023-05-24T02:23:29;101678.50;;;8.21;100.00
47985;BME280;33753;52.912;-7.342;2023-05-24T02:25:58;101679.09;;;8.25;100.00
47985;BME280;33753;52.912;-7.342;2023-05-24T02:28:27;101671.75;;;8.27;100.00
47985;BME280;33753;52.912;-7.342;2023-05-24T02:30:57;101679.81;;;8.27;100.00
47985;BME280;33753;52.912;-7.342;2023-05-24T02:33:28;101682.66;;;8.25;100.00
47985;BME280;33753;52.912;-7.342;2023-05-24T02:35:56;101671.75;;;8.27;100.00
47985;BME280;33753;52.912;-7.342;2023-05-24T02:38:25;101660.94;;;8.27;100.00
47985;BME280;33753;52.912;-7.342;2023-05-24T02:40:53;101658.25;;;8.27;100.00
47985;BME280;33753;52.912;-7.342;2023-05-24T02:43:21;101670.16;;;8.24;100.00
47985;BME280;33753;52.912;-7.342;2023-05-24T02:45:49;101681.31;;;8.20;100.00
47985;BME280;33753;52.912;-7.342;2023-05-24T02:48:18;101686.69;;;8.20;100.00
47985;BME280;33753;52.912;-7.342;2023-05-24T02:50:47;101674.31;;;8.17;100.00
47985;BME280;33753;52.912;-7.342;2023-05-24T02:53:16;101685.22;;;8.16;100.00
47985;BME280;33753;52.912;-7.342;2023-05-24T02:55:44;101677.53;;;8.11;100.00
47985;BME280;33753;52.912;-7.342;2023-05-24T02:58:14;101675.22;;;8.06;100.00
47985;BME280;33753;52.912;-7.342;2023-05-24T03:00:46;101675.09;;;7.96;100.00
47985;BME280;33753;52.912;-7.342;2023-05-24T03:03:16;101684.66;;;7.89;100.00
47985;BME280;33753;52.912;-7.342;2023-05-24T03:05:44;101682.81;;;7.78;100.00
47985;BME280;33753;52.912;-7.342;2023-05-24T03:08:14;101678.66;;;7.74;100.00
47985;BME280;33753;52.912;-7.342;2023-05-24T03:10:43;101670.50;;;7.65;100.00
47985;BME280;33753;52.912;-7.342;2023-05-24T03:13:12;101673.53;;;7.60;100.00
47985;BME280;33753;52.912;-7.342;2023-05-24T03:15:41;101666.06;;;7.52;100.00
47985;BME280;33753;52.912;-7.342;2023-05-24T03:18:09;101675.25;;;7.50;100.00
47985;BME280;33753;52.912;-7.342;2023-05-24T03:20:39;101691.03;;;7.54;100.00
47985;BME280;33753;52.912;-7.342;2023-05-24T03:23:08;101686.03;;;7.61;100.00
47985;BME280;33753;52.912;-7.342;2023-05-24T03:25:39;101687.50;;;7.65;100.00
47985;BME280;33753;52.912;-7.342;2023-05-24T03:28:08;101686.03;;;7.72;100.00
47985;BME280;33753;52.912;-7.342;2023-05-24T03:30:36;101699.25;;;7.75;100.00
47985;BME280;33753;52.912;-7.342;2023-05-24T03:33:06;101702.44;;;7.81;100.00
47985;BME280;33753;52.912;-7.342;2023-05-24T03:35:35;101695.94;;;7.83;100.00
47985;BME280;33753;52.912;-7.342;2023-05-24T03:38:03;101694.59;;;7.89;100.00
47985;BME280;33753;52.912;-7.342;2023-05-24T03:40:33;101696.28;;;7.90;100.00
47985;BME280;33753;52.912;-7.342;2023-05-24T03:43:12;101690.06;;;7.89;100.00
47985;BME280;33753;52.912;-7.342;2023-05-24T03:45:50;101682.94;;;7.88;100.00
47985;BME280;33753;52.912;-7.342;2023-05-24T03:48:19;101680.13;;;7.90;100.00
47985;BME280;33753;52.912;-7.342;2023-05-24T03:50:49;101674.75;;;7.90;100.00
47985;BME280;33753;52.912;-7.342;2023-05-24T03:53:18;101675.00;;;7.87;100.00
47985;BME280;33753;52.912;-7.342;2023-05-24T03:55:49;101667.28;;;7.82;100.00
47985;BME280;33753;52.912;-7.342;2023-05-24T03:58:19;101671.09;;;7.79;100.00
47985;BME280;33753;52.912;-7.342;2023-05-24T04:00:49;101660.81;;;7.73;100.00
47985;BME280;33753;52.912;-7.342;2023-05-24T04:03:17;101667.41;;;7.69;100.00
47985;BME280;33753;52.912;-7.342;2023-05-24T04:05:46;101670.38;;;7.66;100.00
47985;BME280;33753;52.912;-7.342;2023-05-24T04:08:14;101681.59;;;7.60;100.00
47985;BME280;33753;52.912;-7.342;2023-05-24T04:10:43;101686.97;;;7.49;100.00
47985;BME280;33753;52.912;-7.342;2023-05-24T04:13:11;101686.50;;;7.43;100.00
47985;BME280;33753;52.912;-7.342;2023-05-24T04:15:41;101680.63;;;7.38;100.00
47985;BME280;33753;52.912;-7.342;2023-05-24T04:18:10;101676.56;;;7.33;100.00
47985;BME280;33753;52.912;-7.342;2023-05-24T04:20:38;101674.50;;;7.25;100.00
47985;BME280;33753;52.912;-7.342;2023-05-24T04:23:08;101676.44;;;7.23;100.00
47985;BME280;33753;52.912;-7.342;2023-05-24T04:25:36;101675.19;;;7.16;100.00
47985;BME280;33753;52.912;-7.342;2023-05-24T04:28:05;101680.22;;;7.09;100.00
47985;BME280;33753;52.912;-7.342;2023-05-24T04:30:34;101686.69;;;7.06;100.00
47985;BME280;33753;52.912;-7.342;2023-05-24T04:33:04;101683.47;;;7.01;100.00
47985;BME280;33753;52.912;-7.342;2023-05-24T04:35:32;101694.22;;;7.01;100.00
47985;BME280;33753;52.912;-7.342;2023-05-24T04:38:01;101697.94;;;7.00;100.00
47985;BME280;33753;52.912;-7.342;2023-05-24T04:40:29;101700.94;;;6.96;100.00
47985;BME280;33753;52.912;-7.342;2023-05-24T04:42:57;101695.94;;;6.91;100.00
47985;BME280;33753;52.912;-7.342;2023-05-24T04:45:26;101684.44;;;6.89;100.00
47985;BME280;33753;52.912;-7.342;2023-05-24T04:47:56;101693.94;;;6.82;100.00
47985;BME280;33753;52.912;-7.342;2023-05-24T04:50:26;101692.22;;;6.81;100.00
47985;BME280;33753;52.912;-7.342;2023-05-24T04:52:55;101701.25;;;6.80;100.00
47985;BME280;33753;52.912;-7.342;2023-05-24T04:55:23;101697.47;;;6.82;100.00
47985;BME280;33753;52.912;-7.342;2023-05-24T04:57:51;101708.41;;;6.92;100.00
47985;BME280;33753;52.912;-7.342;2023-05-24T05:00:20;101698.41;;;7.05;100.00
47985;BME280;33753;52.912;-7.342;2023-05-24T05:02:48;101716.91;;;7.21;100.00
47985;BME280;33753;52.912;-7.342;2023-05-24T05:05:17;101715.47;;;7.40;100.00
47985;BME280;33753;52.912;-7.342;2023-05-24T05:07:47;101719.44;;;7.58;100.00
47985;BME280;33753;52.912;-7.342;2023-05-24T05:10:15;101722.38;;;7.78;100.00
47985;BME280;33753;52.912;-7.342;2023-05-24T05:12:43;101713.31;;;8.02;100.00
47985;BME280;33753;52.912;-7.342;2023-05-24T05:15:11;101725.66;;;8.27;100.00
47985;BME280;33753;52.912;-7.342;2023-05-24T05:17:40;101721.69;;;8.54;100.00
47985;BME280;33753;52.912;-7.342;2023-05-24T05:20:09;101728.34;;;8.82;100.00
47985;BME280;33753;52.912;-7.342;2023-05-24T05:22:37;101729.31;;;9.13;100.00
47985;BME280;33753;52.912;-7.342;2023-05-24T05:25:07;101719.44;;;9.45;100.00
47985;BME280;33753;52.912;-7.342;2023-05-24T05:27:36;101716.88;;;9.74;100.00
47985;BME280;33753;52.912;-7.342;2023-05-24T05:30:04;101722.41;;;10.03;100.00
47985;BME280;33753;52.912;-7.342;2023-05-24T05:32:34;101729.34;;;10.37;100.00
47985;BME280;33753;52.912;-7.342;2023-05-24T05:35:03;101727.69;;;10.65;100.00
47985;BME280;33753;52.912;-7.342;2023-05-24T05:37:32;101725.72;;;10.97;100.00
47985;BME280;33753;52.912;-7.342;2023-05-24T05:40:00;101719.69;;;11.32;100.00
47985;BME280;33753;52.912;-7.342;2023-05-24T05:42:33;101719.34;;;11.65;100.00
47985;BME280;33753;52.912;-7.342;2023-05-24T05:45:01;101714.63;;;12.04;100.00
47985;BME280;33753;52.912;-7.342;2023-05-24T05:47:30;101711.84;;;12.42;100.00
47985;BME280;33753;52.912;-7.342;2023-05-24T05:49:58;101712.19;;;12.75;100.00
47985;BME280;33753;52.912;-7.342;2023-05-24T05:52:26;101712.31;;;13.09;100.00
47985;BME280;33753;52.912;-7.342;2023-05-24T05:54:55;101702.41;;;13.44;100.00
47985;BME280;33753;52.912;-7.342;2023-05-24T05:57:23;101713.34;;;13.87;100.00
47985;BME280;33753;52.912;-7.342;2023-05-24T05:59:53;101701.09;;;14.17;100.00
47985;BME280;33753;52.912;-7.342;2023-05-24T06:02:21;101695.03;;;14.48;100.00
47985;BME280;33753;52.912;-7.342;2023-05-24T06:04:49;101688.25;;;14.52;100.00
47985;BME280;33753;52.912;-7.342;2023-05-24T06:07:18;101686.91;;;14.73;100.00
47985;BME280;33753;52.912;-7.342;2023-05-24T06:09:47;101679.78;;;14.72;100.00
47985;BME280;33753;52.912;-7.342;2023-05-24T06:12:15;101674.50;;;15.12;100.00
47985;BME280;33753;52.912;-7.342;2023-05-24T06:14:43;101675.66;;;15.42;100.00
47985;BME280;33753;52.912;-7.342;2023-05-24T06:17:15;101671.63;;;15.86;100.00
47985;BME280;33753;52.912;-7.342;2023-05-24T06:19:44;101669.84;;;16.33;100.00
47985;BME280;33753;52.912;-7.342;2023-05-24T06:22:12;101670.19;;;16.61;100.00
47985;BME280;33753;52.912;-7.342;2023-05-24T06:24:41;101665.13;;;16.96;100.00
47985;BME280;33753;52.912;-7.342;2023-05-24T06:27:09;101664.34;;;17.10;100.00
47985;BME280;33753;52.912;-7.342;2023-05-24T06:29:37;101664.41;;;17.55;100.00
47985;BME280;33753;52.912;-7.342;2023-05-24T06:32:06;101671.38;;;17.88;100.00
47985;BME280;33753;52.912;-7.342;2023-05-24T06:34:36;101670.84;;;18.29;100.00
47985;BME280;33753;52.912;-7.342;2023-05-24T06:37:05;101673.34;;;18.45;100.00
47985;BME280;33753;52.912;-7.342;2023-05-24T06:39:36;101671.94;;;18.71;100.00
47985;BME280;33753;52.912;-7.342;2023-05-24T06:42:04;101674.50;;;19.23;100.00
47985;BME280;33753;52.912;-7.342;2023-05-24T06:44:35;101666.53;;;19.28;100.00
47985;BME280;33753;52.912;-7.342;2023-05-24T06:47:03;101660.19;;;19.56;100.00
47985;BME280;33753;52.912;-7.342;2023-05-24T06:49:33;101665.50;;;19.99;100.00
47985;BME280;33753;52.912;-7.342;2023-05-24T06:52:03;101664.13;;;20.30;100.00
47985;BME280;33753;52.912;-7.342;2023-05-24T06:54:33;101660.41;;;20.64;100.00
47985;BME280;33753;52.912;-7.342;2023-05-24T06:57:01;101666.38;;;20.95;100.00
47985;BME280;33753;52.912;-7.342;2023-05-24T06:59:29;101664.69;;;21.34;100.00
47985;BME280;33753;52.912;-7.342;2023-05-24T07:01:57;101660.22;;;21.60;100.00
47985;BME280;33753;52.912;-7.342;2023-05-24T07:04:29;101665.13;;;22.03;100.00
47985;BME280;33753;52.912;-7.342;2023-05-24T07:07:04;101658.06;;;22.20;100.00
47985;BME280;33753;52.912;-7.342;2023-05-24T07:09:32;101664.38;;;22.27;100.00
47985;BME280;33753;52.912;-7.342;2023-05-24T07:12:00;101656.09;;;22.41;100.00
47985;BME280;33753;52.912;-7.342;2023-05-24T07:14:29;101658.44;;;22.31;100.00
47985;BME280;33753;52.912;-7.342;2023-05-24T07:16:57;101659.78;;;22.15;100.00
47985;BME280;33753;52.912;-7.342;2023-05-24T07:19:26;101665.81;;;21.91;100.00
47985;BME280;33753;52.912;-7.342;2023-05-24T07:21:55;101673.53;;;21.56;100.00
47985;BME280;33753;52.912;-7.342;2023-05-24T07:24:25;101663.19;;;21.24;100.00
47985;BME280;33753;52.912;-7.342;2023-05-24T07:26:53;101671.03;;;20.94;100.00
47985;BME280;33753;52.912;-7.342;2023-05-24T07:29:23;101667.41;;;20.67;100.00
47985;BME280;33753;52.912;-7.342;2023-05-24T07:31:53;101676.25;;;20.55;100.00
47985;BME280;33753;52.912;-7.342;2023-05-24T07:34:21;101672.69;;;20.00;100.00
47985;BME280;33753;52.912;-7.342;2023-05-24T07:36:53;101671.88;;;19.71;100.00
47985;BME280;33753;52.912;-7.342;2023-05-24T07:39:21;101678.34;;;19.92;100.00
47985;BME280;33753;52.912;-7.342;2023-05-24T07:41:52;101676.34;;;19.72;100.00
47985;BME280;33753;52.912;-7.342;2023-05-24T07:44:20;101681.78;;;19.65;100.00
47985;BME280;33753;52.912;-7.342;2023-05-24T07:46:49;101687.00;;;19.25;100.00
47985;BME280;33753;52.912;-7.342;2023-05-24T07:49:20;101692.72;;;19.02;100.00
47985;BME280;33753;52.912;-7.342;2023-05-24T07:51:48;101684.09;;;19.05;100.00
47985;BME280;33753;52.912;-7.342;2023-05-24T07:54:17;101678.78;;;18.82;100.00
47985;BME280;33753;52.912;-7.342;2023-05-24T07:56:45;101685.72;;;18.56;100.00
47985;BME280;33753;52.912;-7.342;2023-05-24T07:59:15;101679.84;;;18.59;100.00
47985;BME280;33753;52.912;-7.342;2023-05-24T08:01:43;101683.41;;;18.60;100.00
47985;BME280;33753;52.912;-7.342;2023-05-24T08:04:13;101690.41;;;18.62;100.00
47985;BME280;33753;52.912;-7.342;2023-05-24T08:06:41;101687.19;;;18.59;100.00
47985;BME280;33753;52.912;-7.342;2023-05-24T08:09:12;101690.44;;;18.47;100.00
47985;BME280;33753;52.912;-7.342;2023-05-24T08:11:40;101692.81;;;18.51;100.00
47985;BME280;33753;52.912;-7.342;2023-05-24T08:14:08;101692.25;;;18.40;100.00
47985;BME280;33753;52.912;-7.342;2023-05-24T08:16:38;101697.44;;;18.13;100.00
47985;BME280;33753;52.912;-7.342;2023-05-24T08:19:07;101698.75;;;18.18;100.00
47985;BME280;33753;52.912;-7.342;2023-05-24T08:21:35;101698.16;;;18.22;100.00
47985;BME280;33753;52.912;-7.342;2023-05-24T08:24:04;101696.75;;;18.11;100.00
47985;BME280;33753;52.912;-7.342;2023-05-24T08:26:35;101703.47;;;18.24;100.00
47985;BME280;33753;52.912;-7.342;2023-05-24T08:29:03;101712.00;;;17.99;100.00
47985;BME280;33753;52.912;-7.342;2023-05-24T08:31:32;101707.94;;;17.95;100.00
47985;BME280;33753;52.912;-7.342;2023-05-24T08:34:02;101700.03;;;18.22;100.00
47985;BME280;33753;52.912;-7.342;2023-05-24T08:36:30;101701.66;;;18.16;100.00
47985;BME280;33753;52.912;-7.342;2023-05-24T08:38:58;101698.44;;;18.27;100.00
47985;BME280;33753;52.912;-7.342;2023-05-24T08:41:27;101707.41;;;18.36;100.00
47985;BME280;33753;52.912;-7.342;2023-05-24T08:43:55;101705.53;;;18.22;100.00
47985;BME280;33753;52.912;-7.342;2023-05-24T08:46:27;101699.94;;;18.30;100.00
47985;BME280;33753;52.912;-7.342;2023-05-24T08:48:55;101703.28;;;18.47;100.00
47985;BME280;33753;52.912;-7.342;2023-05-24T08:51:26;101704.31;;;18.82;100.00
47985;BME280;33753;52.912;-7.342;2023-05-24T08:53:55;101700.25;;;18.78;100.00
47985;BME280;33753;52.912;-7.342;2023-05-24T08:56:24;101697.34;;;19.02;100.00
47985;BME280;33753;52.912;-7.342;2023-05-24T08:58:53;101692.72;;;19.02;100.00
47985;BME280;33753;52.912;-7.342;2023-05-24T09:01:22;101695.91;;;19.06;100.00
47985;BME280;33753;52.912;-7.342;2023-05-24T09:03:53;101701.59;;;19.04;100.00
47985;BME280;33753;52.912;-7.342;2023-05-24T09:06:22;101700.13;;;19.08;100.00
47985;BME280;33753;52.912;-7.342;2023-05-24T09:08:52;101705.50;;;19.16;100.00
47985;BME280;33753;52.912;-7.342;2023-05-24T09:11:21;101711.38;;;19.13;100.00
47985;BME280;33753;52.912;-7.342;2023-05-24T09:13:50;101705.34;;;18.81;100.00
47985;BME280;33753;52.912;-7.342;2023-05-24T09:16:21;101701.16;;;18.27;100.00
47985;BME280;33753;52.912;-7.342;2023-05-24T09:18:50;101698.22;;;18.44;100.00
47985;BME280;33753;52.912;-7.342;2023-05-24T09:21:18;101697.78;;;18.62;100.00
47985;BME280;33753;52.912;-7.342;2023-05-24T09:23:46;101695.03;;;18.62;100.00
47985;BME280;33753;52.912;-7.342;2023-05-24T09:26:17;101696.72;;;18.85;100.00
47985;BME280;33753;52.912;-7.342;2023-05-24T09:28:46;101693.25;;;18.91;100.00
47985;BME280;33753;52.912;-7.342;2023-05-24T09:31:15;101682.81;;;18.86;100.00
47985;BME280;33753;52.912;-7.342;2023-05-24T09:33:47;101691.75;;;18.73;100.00
47985;BME280;33753;52.912;-7.342;2023-05-24T09:36:15;101697.94;;;18.60;100.00
47985;BME280;33753;52.912;-7.342;2023-05-24T09:38:44;101681.72;;;18.80;100.00
47985;BME280;33753;52.912;-7.342;2023-05-24T09:41:12;101688.28;;;18.64;100.00
47985;BME280;33753;52.912;-7.342;2023-05-24T09:43:48;101689.28;;;18.57;100.00
47985;BME280;33753;52.912;-7.342;2023-05-24T09:46:16;101691.63;;;18.60;100.00
47985;BME280;33753;52.912;-7.342;2023-05-24T09:48:55;101695.81;;;18.19;100.00
47985;BME280;33753;52.912;-7.342;2023-05-24T09:51:24;101697.59;;;18.27;100.00
47985;BME280;33753;52.912;-7.342;2023-05-24T09:53:55;101701.31;;;18.19;100.00
47985;BME280;33753;52.912;-7.342;2023-05-24T09:56:24;101698.06;;;18.16;100.00
47985;BME280;33753;52.912;-7.342;2023-05-24T09:58:55;101697.69;;;18.19;100.00
47985;BME280;33753;52.912;-7.342;2023-05-24T10:01:24;101699.69;;;18.25;100.00
47985;BME280;33753;52.912;-7.342;2023-05-24T10:03:52;101695.47;;;18.44;100.00
47985;BME280;33753;52.912;-7.342;2023-05-24T10:06:21;101703.56;;;18.16;100.00
47985;BME280;33753;52.912;-7.342;2023-05-24T10:08:49;101700.72;;;18.09;100.00
47985;BME280;33753;52.912;-7.342;2023-05-24T10:11:20;101699.31;;;17.83;100.00
47985;BME280;33753;52.912;-7.342;2023-05-24T10:13:48;101698.16;;;17.77;100.00
47985;BME280;33753;52.912;-7.342;2023-05-24T10:16:18;101693.63;;;17.40;100.00
47985;BME280;33753;52.912;-7.342;2023-05-24T10:18:46;101687.75;;;17.28;100.00
47985;BME280;33753;52.912;-7.342;2023-05-24T10:21:15;101689.09;;;17.32;100.00
47985;BME280;33753;52.912;-7.342;2023-05-24T10:23:44;101686.81;;;17.21;100.00
47985;BME280;33753;52.912;-7.342;2023-05-24T10:26:16;101686.22;;;17.10;100.00
47985;BME280;33753;52.912;-7.342;2023-05-24T10:28:45;101682.88;;;17.23;100.00
47985;BME280;33753;52.912;-7.342;2023-05-24T10:31:16;101675.31;;;17.25;100.00
47985;BME280;33753;52.912;-7.342;2023-05-24T10:33:46;101668.31;;;17.23;100.00
47985;BME280;33753;52.912;-7.342;2023-05-24T10:36:17;101670.41;;;17.21;100.00
47985;BME280;33753;52.912;-7.342;2023-05-24T10:38:46;101674.09;;;17.28;100.00
47985;BME280;33753;52.912;-7.342;2023-05-24T10:41:14;101680.13;;;17.38;100.00
47985;BME280;33753;52.912;-7.342;2023-05-24T10:43:45;101683.72;;;17.69;100.00
47985;BME280;33753;52.912;-7.342;2023-05-24T10:46:33;101684.78;;;18.12;100.00
47985;BME280;33753;52.912;-7.342;2023-05-24T10:49:03;101691.09;;;18.50;100.00
47985;BME280;33753;52.912;-7.342;2023-05-24T10:51:33;101688.66;;;18.76;100.00
47985;BME280;33753;52.912;-7.342;2023-05-24T10:54:12;101690.50;;;18.54;100.00
47985;BME280;33753;52.912;-7.342;2023-05-24T10:56:43;101691.19;;;18.56;100.00
47985;BME280;33753;52.912;-7.342;2023-05-24T11:02:03;101679.53;;;18.91;100.00
47985;BME280;33753;52.912;-7.342;2023-05-24T11:04:35;101685.78;;;19.06;100.00
47985;BME280;33753;52.912;-7.342;2023-05-24T11:07:04;101680.31;;;19.06;100.00
47985;BME280;33753;52.912;-7.342;2023-05-24T11:09:35;101676.41;;;19.22;100.00
47985;BME280;33753;52.912;-7.342;2023-05-24T11:12:05;101668.88;;;19.59;100.00
47985;BME280;33753;52.912;-7.342;2023-05-24T11:14:35;101675.19;;;19.60;100.00
47985;BME280;33753;52.912;-7.342;2023-05-24T11:17:05;101670.34;;;19.97;100.00
47985;BME280;33753;52.912;-7.342;2023-05-24T11:19:36;101671.19;;;19.97;100.00
47985;BME280;33753;52.912;-7.342;2023-05-24T11:22:05;101673.41;;;20.29;100.00
47985;BME280;33753;52.912;-7.342;2023-05-24T11:24:34;101672.63;;;20.48;100.00
47985;BME280;33753;52.912;-7.342;2023-05-24T11:27:02;101674.34;;;20.63;100.00
47985;BME280;33753;52.912;-7.342;2023-05-24T11:29:31;101667.22;;;20.88;100.00
47985;BME280;33753;52.912;-7.342;2023-05-24T11:32:04;101675.28;;;20.97;100.00
47985;BME280;33753;52.912;-7.342;2023-05-24T11:34:35;101661.94;;;21.07;100.00
47985;BME280;33753;52.912;-7.342;2023-05-24T11:37:03;101676.13;;;21.24;100.00
47985;BME280;33753;52.912;-7.342;2023-05-24T11:39:34;101664.22;;;21.57;100.00
47985;BME280;33753;52.912;-7.342;2023-05-24T11:42:03;101668.13;;;21.95;100.00
47985;BME280;33753;52.912;-7.342;2023-05-24T11:44:32;101672.00;;;21.80;100.00
47985;BME280;33753;52.912;-7.342;2023-05-24T11:47:04;101670.88;;;21.95;100.00
47985;BME280;33753;52.912;-7.342;2023-05-24T11:49:35;101664.69;;;22.06;100.00
47985;BME280;33753;52.912;-7.342;2023-05-24T11:52:03;101673.16;;;22.56;100.00
47985;BME280;33753;52.912;-7.342;2023-05-24T11:54:32;101675.13;;;22.49;100.00
47985;BME280;33753;52.912;-7.342;2023-05-24T11:57:00;101667.66;;;22.82;100.00
47985;BME280;33753;52.912;-7.342;2023-05-24T11:59:29;101668.81;;;22.74;100.00
47985;BME280;33753;52.912;-7.342;2023-05-24T12:01:58;101672.88;;;22.65;100.00
47985;BME280;33753;52.912;-7.342;2023-05-24T12:04:27;101673.75;;;22.90;100.00
47985;BME280;33753;52.912;-7.342;2023-05-24T12:06:58;101659.91;;;22.97;100.00
47985;BME280;33753;52.912;-7.342;2023-05-24T12:09:27;101661.47;;;22.86;100.00
47985;BME280;33753;52.912;-7.342;2023-05-24T12:11:55;101671.22;;;22.89;100.00
47985;BME280;33753;52.912;-7.342;2023-05-24T12:14:26;101666.31;;;22.66;100.00
47985;BME280;33753;52.912;-7.342;2023-05-24T12:16:56;101659.88;;;23.04;100.00
47985;BME280;33753;52.912;-7.342;2023-05-24T12:19:29;101667.50;;;23.02;100.00
47985;BME280;33753;52.912;-7.342;2023-05-24T12:22:04;101672.72;;;22.59;100.00
47985;BME280;33753;52.912;-7.342;2023-05-24T12:24:34;101678.50;;;22.51;100.00
47985;BME280;33753;52.912;-7.342;2023-05-24T12:27:02;101677.25;;;22.47;100.00
47985;BME280;33753;52.912;-7.342;2023-05-24T12:29:43;101678.59;;;21.79;100.00
47985;BME280;33753;52.912;-7.342;2023-05-24T12:32:11;101683.88;;;21.81;100.00
47985;BME280;33753;52.912;-7.342;2023-05-24T12:34:41;101674.31;;;21.83;100.00
47985;BME280;33753;52.912;-7.342;2023-05-24T12:37:11;101675.25;;;21.37;100.00
47985;BME280;33753;52.912;-7.342;2023-05-24T12:39:39;101669.53;;;21.45;100.00
47985;BME280;33753;52.912;-7.342;2023-05-24T12:42:10;101674.63;;;21.35;100.00
47985;BME280;33753;52.912;-7.342;2023-05-24T12:44:39;101669.97;;;21.55;100.00
47985;BME280;33753;52.912;-7.342;2023-05-24T12:47:09;101676.28;;;21.63;100.00
47985;BME280;33753;52.912;-7.342;2023-05-24T12:49:38;101664.69;;;21.34;100.00